sensor_id;sensor_type;location;lat;lon;timestamp;P1;P2;P0
67892;PMS7003;54688;52.376;16.744;2023-07-20T00:00:32;14;11;
67892;PMS7003;54688;52.376;16.744;2023-07-20T00:04:03;13;12;
67892;PMS7003;54688;52.376;16.744;2023-07-20T00:07:05;11;11;
67892;PMS7003;54688;52.376;16.744;2023-07-20T00:10:08;15;14;
67892;PMS7003;54688;52.376;16.744;2023-07-20T00:13:11;16;15;
67892;PMS7003;54688;52.376;16.744;2023-07-20T00:16:13;18;13;
67892;PMS7003;54688;52.376;16.744;2023-07-20T00:19:14;15;15;
67892;PMS7003;54688;52.376;16.744;2023-07-20T00:22:16;16;16;
67892;PMS7003;54688;52.376;16.744;2023-07-20T00:25:18;15;14;
67892;PMS7003;54688;52.376;16.744;2023-07-20T00:28:20;16;14;
67892;PMS7003;54688;52.376;16.744;2023-07-20T00:31:22;13;13;
67892;PMS7003;54688;52.376;16.744;2023-07-20T00:34:24;14;14;
67892;PMS7003;54688;52.376;16.744;2023-07-20T00:37:26;15;15;
67892;PMS7003;54688;52.376;16.744;2023-07-20T00:40:28;19;15;
67892;PMS7003;54688;52.376;16.744;2023-07-20T00:43:31;16;15;
67892;PMS7003;54688;52.376;16.744;2023-07-20T00:46:33;16;13;
67892;PMS7003;54688;52.376;16.744;2023-07-20T00:49:35;14;14;
67892;PMS7003;54688;52.376;16.744;2023-07-20T00:52:37;14;12;
67892;PMS7003;54688;52.376;16.744;2023-07-20T00:55:40;14;14;
67892;PMS7003;54688;52.376;16.744;2023-07-20T01:01:41;17;15;
67892;PMS7003;54688;52.376;16.744;2023-07-20T01:04:44;18;17;
67892;PMS7003;54688;52.376;16.744;2023-07-20T01:07:52;14;14;
67892;PMS7003;54688;52.376;16.744;2023-07-20T01:10:59;17;17;
67892;PMS7003;54688;52.376;16.744;2023-07-20T01:14:03;15;15;
67892;PMS7003;54688;52.376;16.744;2023-07-20T01:17:06;16;15;
67892;PMS7003;54688;52.376;16.744;2023-07-20T01:20:12;13;13;
67892;PMS7003;54688;52.376;16.744;2023-07-20T01:23:30;12;12;
67892;PMS7003;54688;52.376;16.744;2023-07-20T01:26:50;15;14;
67892;PMS7003;54688;52.376;16.744;2023-07-20T01:30:10;16;15;
67892;PMS7003;54688;52.376;16.744;2023-07-20T01:33:17;17;14;
67892;PMS7003;54688;52.376;16.744;2023-07-20T01:36:21;18;15;
67892;PMS7003;54688;52.376;16.744;2023-07-20T01:39:23;15;13;
67892;PMS7003;54688;52.376;16.744;2023-07-20T01:42:26;15;15;
67892;PMS7003;54688;52.376;16.744;2023-07-20T01:45:28;12;11;
67892;PMS7003;54688;52.376;16.744;2023-07-20T01:48:30;17;15;
67892;PMS7003;54688;52.376;16.744;2023-07-20T01:51:32;13;13;
67892;PMS7003;54688;52.376;16.744;2023-07-20T01:54:34;13;13;
67892;PMS7003;54688;52.376;16.744;2023-07-20T01:57:37;18;17;
67892;PMS7003;54688;52.376;16.744;2023-07-20T02:00:39;16;16;
67892;PMS7003;54688;52.376;16.744;2023-07-20T02:03:42;17;15;
67892;PMS7003;54688;52.376;16.744;2023-07-20T02:06:43;14;14;
67892;PMS7003;54688;52.376;16.744;2023-07-20T02:09:45;17;15;
67892;PMS7003;54688;52.376;16.744;2023-07-20T02:12:47;15;13;
67892;PMS7003;54688;52.376;16.744;2023-07-20T02:15:49;14;14;
67892;PMS7003;54688;52.376;16.744;2023-07-20T02:18:52;14;14;
67892;PMS7003;54688;52.376;16.744;2023-07-20T02:21:54;15;13;
67892;PMS7003;54688;52.376;16.744;2023-07-20T02:24:56;15;15;
67892;PMS7003;54688;52.376;16.744;2023-07-20T02:27:57;20;16;
67892;PMS7003;54688;52.376;16.744;2023-07-20T02:30:59;17;15;
67892;PMS7003;54688;52.376;16.744;2023-07-20T02:34:01;16;14;
67892;PMS7003;54688;52.376;16.744;2023-07-20T02:37:03;16;15;
67892;PMS7003;54688;52.376;16.744;2023-07-20T02:40:07;16;14;
67892;PMS7003;54688;52.376;16.744;2023-07-20T02:43:09;18;13;
67892;PMS7003;54688;52.376;16.744;2023-07-20T02:46:10;14;14;
67892;PMS7003;54688;52.376;16.744;2023-07-20T02:49:13;16;13;
67892;PMS7003;54688;52.376;16.744;2023-07-20T02:52:15;14;14;
67892;PMS7003;54688;52.376;16.744;2023-07-20T02:58:16;17;16;
67892;PMS7003;54688;52.376;16.744;2023-07-20T03:01:19;17;14;
67892;PMS7003;54688;52.376;16.744;2023-07-20T03:04:20;16;15;
67892;PMS7003;54688;52.376;16.744;2023-07-20T03:07:23;15;15;
67892;PMS7003;54688;52.376;16.744;2023-07-20T03:10:24;15;14;
67892;PMS7003;54688;52.376;16.744;2023-07-20T03:13:26;18;16;
67892;PMS7003;54688;52.376;16.744;2023-07-20T03:16:28;19;17;
67892;PMS7003;54688;52.376;16.744;2023-07-20T03:19:31;22;22;
67892;PMS7003;54688;52.376;16.744;2023-07-20T03:22:33;13;13;
67892;PMS7003;54688;52.376;16.744;2023-07-20T03:25:35;17;15;
67892;PMS7003;54688;52.376;16.744;2023-07-20T03:28:37;18;17;
67892;PMS7003;54688;52.376;16.744;2023-07-20T03:31:39;16;16;
67892;PMS7003;54688;52.376;16.744;2023-07-20T03:34:42;18;18;
67892;PMS7003;54688;52.376;16.744;2023-07-20T03:37:43;17;17;
67892;PMS7003;54688;52.376;16.744;2023-07-20T03:40:49;16;16;
67892;PMS7003;54688;52.376;16.744;2023-07-20T03:43:51;21;18;
67892;PMS7003;54688;52.376;16.744;2023-07-20T03:46:53;15;14;
67892;PMS7003;54688;52.376;16.744;2023-07-20T03:49:55;18;17;
67892;PMS7003;54688;52.376;16.744;2023-07-20T03:52:57;18;16;
67892;PMS7003;54688;52.376;16.744;2023-07-20T03:55:59;20;16;
67892;PMS7003;54688;52.376;16.744;2023-07-20T03:59:01;18;17;
67892;PMS7003;54688;52.376;16.744;2023-07-20T04:02:04;17;15;
67892;PMS7003;54688;52.376;16.744;2023-07-20T04:05:07;17;16;
67892;PMS7003;54688;52.376;16.744;2023-07-20T04:08:09;15;15;
67892;PMS7003;54688;52.376;16.744;2023-07-20T04:11:11;16;16;
67892;PMS7003;54688;52.376;16.744;2023-07-20T04:14:13;16;16;
67892;PMS7003;54688;52.376;16.744;2023-07-20T04:17:16;24;21;
67892;PMS7003;54688;52.376;16.744;2023-07-20T04:20:25;19;16;
67892;PMS7003;54688;52.376;16.744;2023-07-20T04:23:27;17;17;
67892;PMS7003;54688;52.376;16.744;2023-07-20T04:26:29;20;16;
67892;PMS7003;54688;52.376;16.744;2023-07-20T04:29:31;16;16;
67892;PMS7003;54688;52.376;16.744;2023-07-20T04:32:32;20;17;
67892;PMS7003;54688;52.376;16.744;2023-07-20T04:35:51;17;17;
67892;PMS7003;54688;52.376;16.744;2023-07-20T04:38:53;15;15;
67892;PMS7003;54688;52.376;16.744;2023-07-20T04:41:55;22;19;
67892;PMS7003;54688;52.376;16.744;2023-07-20T04:44:58;21;19;
67892;PMS7003;54688;52.376;16.744;2023-07-20T04:47:59;17;16;
67892;PMS7003;54688;52.376;16.744;2023-07-20T04:51:02;22;17;
67892;PMS7003;54688;52.376;16.744;2023-07-20T04:54:04;19;18;
67892;PMS7003;54688;52.376;16.744;2023-07-20T04:57:11;19;18;
67892;PMS7003;54688;52.376;16.744;2023-07-20T05:00:14;21;18;
67892;PMS7003;54688;52.376;16.744;2023-07-20T05:03:16;19;19;
67892;PMS7003;54688;52.376;16.744;2023-07-20T05:06:19;16;14;
67892;PMS7003;54688;52.376;16.744;2023-07-20T05:09:21;22;21;
67892;PMS7003;54688;52.376;16.744;2023-07-20T05:12:23;18;18;
67892;PMS7003;54688;52.376;16.744;2023-07-20T05:15:24;17;17;
67892;PMS7003;54688;52.376;16.744;2023-07-20T05:18:26;17;16;
67892;PMS7003;54688;52.376;16.744;2023-07-20T05:21:29;20;20;
67892;PMS7003;54688;52.376;16.744;2023-07-20T05:24:31;18;17;
67892;PMS7003;54688;52.376;16.744;2023-07-20T05:27:33;19;18;
67892;PMS7003;54688;52.376;16.744;2023-07-20T05:30:35;18;18;
67892;PMS7003;54688;52.376;16.744;2023-07-20T05:33:38;18;16;
67892;PMS7003;54688;52.376;16.744;2023-07-20T05:36:40;20;18;
67892;PMS7003;54688;52.376;16.744;2023-07-20T05:39:42;20;16;
67892;PMS7003;54688;52.376;16.744;2023-07-20T05:42:44;17;16;
67892;PMS7003;54688;52.376;16.744;2023-07-20T05:45:46;19;18;
67892;PMS7003;54688;52.376;16.744;2023-07-20T05:48:48;18;17;
67892;PMS7003;54688;52.376;16.744;2023-07-20T05:51:50;15;15;
67892;PMS7003;54688;52.376;16.744;2023-07-20T05:54:52;17;16;
67892;PMS7003;54688;52.376;16.744;2023-07-20T05:57:54;17;15;
67892;PMS7003;54688;52.376;16.744;2023-07-20T06:00:56;22;20;
67892;PMS7003;54688;52.376;16.744;2023-07-20T06:03:58;22;17;
67892;PMS7003;54688;52.376;16.744;2023-07-20T06:07:00;18;15;
67892;PMS7003;54688;52.376;16.744;2023-07-20T06:10:03;18;18;
67892;PMS7003;54688;52.376;16.744;2023-07-20T06:13:06;21;18;
67892;PMS7003;54688;52.376;16.744;2023-07-20T06:16:08;17;16;
67892;PMS7003;54688;52.376;16.744;2023-07-20T06:19:10;15;14;
67892;PMS7003;54688;52.376;16.744;2023-07-20T06:22:12;18;14;
67892;PMS7003;54688;52.376;16.744;2023-07-20T06:25:14;12;12;
67892;PMS7003;54688;52.376;16.744;2023-07-20T06:28:17;17;13;
67892;PMS7003;54688;52.376;16.744;2023-07-20T06:31:18;18;13;
67892;PMS7003;54688;52.376;16.744;2023-07-20T06:34:20;13;13;
67892;PMS7003;54688;52.376;16.744;2023-07-20T06:37:22;12;12;
67892;PMS7003;54688;52.376;16.744;2023-07-20T06:40:24;13;13;
67892;PMS7003;54688;52.376;16.744;2023-07-20T06:43:26;13;11;
67892;PMS7003;54688;52.376;16.744;2023-07-20T06:46:28;16;14;
67892;PMS7003;54688;52.376;16.744;2023-07-20T06:49:31;10;10;
67892;PMS7003;54688;52.376;16.744;2023-07-20T06:52:34;10;10;
67892;PMS7003;54688;52.376;16.744;2023-07-20T06:55:36;12;10;
67892;PMS7003;54688;52.376;16.744;2023-07-20T06:58:38;11;11;
67892;PMS7003;54688;52.376;16.744;2023-07-20T07:01:41;12;12;
67892;PMS7003;54688;52.376;16.744;2023-07-20T07:04:43;12;12;
67892;PMS7003;54688;52.376;16.744;2023-07-20T07:07:45;12;11;
67892;PMS7003;54688;52.376;16.744;2023-07-20T07:10:47;17;13;
67892;PMS7003;54688;52.376;16.744;2023-07-20T07:13:49;13;9;
67892;PMS7003;54688;52.376;16.744;2023-07-20T07:16:51;11;11;
67892;PMS7003;54688;52.376;16.744;2023-07-20T07:19:53;9;8;
67892;PMS7003;54688;52.376;16.744;2023-07-20T07:22:55;10;10;
67892;PMS7003;54688;52.376;16.744;2023-07-20T07:25:56;13;12;
67892;PMS7003;54688;52.376;16.744;2023-07-20T07:28:58;7;7;
67892;PMS7003;54688;52.376;16.744;2023-07-20T07:32:01;8;8;
67892;PMS7003;54688;52.376;16.744;2023-07-20T07:35:04;6;6;
67892;PMS7003;54688;52.376;16.744;2023-07-20T07:38:07;7;7;
67892;PMS7003;54688;52.376;16.744;2023-07-20T07:41:09;7;7;
67892;PMS7003;54688;52.376;16.744;2023-07-20T07:44:11;7;7;
67892;PMS7003;54688;52.376;16.744;2023-07-20T07:47:13;8;8;
67892;PMS7003;54688;52.376;16.744;2023-07-20T07:50:15;11;9;
67892;PMS7003;54688;52.376;16.744;2023-07-20T07:53:18;10;7;
67892;PMS7003;54688;52.376;16.744;2023-07-20T07:56:22;8;8;
67892;PMS7003;54688;52.376;16.744;2023-07-20T07:59:24;14;12;
67892;PMS7003;54688;52.376;16.744;2023-07-20T08:02:27;10;9;
67892;PMS7003;54688;52.376;16.744;2023-07-20T08:05:29;12;10;
67892;PMS7003;54688;52.376;16.744;2023-07-20T08:08:31;10;10;
67892;PMS7003;54688;52.376;16.744;2023-07-20T08:11:33;10;10;
67892;PMS7003;54688;52.376;16.744;2023-07-20T08:14:36;10;10;
67892;PMS7003;54688;52.376;16.744;2023-07-20T08:17:38;9;9;
67892;PMS7003;54688;52.376;16.744;2023-07-20T08:20:43;14;10;
67892;PMS7003;54688;52.376;16.744;2023-07-20T08:23:45;10;10;
67892;PMS7003;54688;52.376;16.744;2023-07-20T08:26:48;9;9;
67892;PMS7003;54688;52.376;16.744;2023-07-20T08:29:49;13;12;
67892;PMS7003;54688;52.376;16.744;2023-07-20T08:32:51;11;11;
67892;PMS7003;54688;52.376;16.744;2023-07-20T08:35:53;11;11;
67892;PMS7003;54688;52.376;16.744;2023-07-20T08:38:55;11;9;
67892;PMS7003;54688;52.376;16.744;2023-07-20T08:41:59;12;11;
67892;PMS7003;54688;52.376;16.744;2023-07-20T08:45:06;15;12;
67892;PMS7003;54688;52.376;16.744;2023-07-20T08:48:11;20;18;
67892;PMS7003;54688;52.376;16.744;2023-07-20T08:51:14;15;12;
67892;PMS7003;54688;52.376;16.744;2023-07-20T08:54:18;14;14;
67892;PMS7003;54688;52.376;16.744;2023-07-20T08:57:21;23;23;
67892;PMS7003;54688;52.376;16.744;2023-07-20T09:00:24;22;22;
67892;PMS7003;54688;52.376;16.744;2023-07-20T09:03:27;25;23;
67892;PMS7003;54688;52.376;16.744;2023-07-20T09:06:29;20;18;
67892;PMS7003;54688;52.376;16.744;2023-07-20T09:09:31;15;15;
67892;PMS7003;54688;52.376;16.744;2023-07-20T09:12:34;1;1;
67892;PMS7003;54688;52.376;16.744;2023-07-20T09:15:37;2;2;
67892;PMS7003;54688;52.376;16.744;2023-07-20T09:18:38;2;2;
67892;PMS7003;54688;52.376;16.744;2023-07-20T09:21:40;3;3;
67892;PMS7003;54688;52.376;16.744;2023-07-20T09:24:42;6;3;
67892;PMS7003;54688;52.376;16.744;2023-07-20T09:27:46;6;3;
67892;PMS7003;54688;52.376;16.744;2023-07-20T09:30:48;3;2;
67892;PMS7003;54688;52.376;16.744;2023-07-20T09:33:52;2;2;
67892;PMS7003;54688;52.376;16.744;2023-07-20T09:36:55;0;0;
67892;PMS7003;54688;52.376;16.744;2023-07-20T09:39:58;0;0;
67892;PMS7003;54688;52.376;16.744;2023-07-20T09:43:00;2;0;
67892;PMS7003;54688;52.376;16.744;2023-07-20T09:46:02;1;0;
67892;PMS7003;54688;52.376;16.744;2023-07-20T09:49:08;2;2;
67892;PMS7003;54688;52.376;16.744;2023-07-20T09:52:11;3;1;
67892;PMS7003;54688;52.376;16.744;2023-07-20T09:55:13;0;0;
67892;PMS7003;54688;52.376;16.744;2023-07-20T09:58:16;1;1;
67892;PMS7003;54688;52.376;16.744;2023-07-20T10:01:20;3;2;
67892;PMS7003;54688;52.376;16.744;2023-07-20T10:04:24;1;1;
67892;PMS7003;54688;52.376;16.744;2023-07-20T10:07:27;1;1;
67892;PMS7003;54688;52.376;16.744;2023-07-20T10:10:31;2;2;
67892;PMS7003;54688;52.376;16.744;2023-07-20T10:13:38;3;3;
67892;PMS7003;54688;52.376;16.744;2023-07-20T10:16:43;7;6;
67892;PMS7003;54688;52.376;16.744;2023-07-20T10:19:47;5;5;
67892;PMS7003;54688;52.376;16.744;2023-07-20T10:22:53;5;5;
67892;PMS7003;54688;52.376;16.744;2023-07-20T10:25:56;10;9;
67892;PMS7003;54688;52.376;16.744;2023-07-20T10:28:59;7;6;
67892;PMS7003;54688;52.376;16.744;2023-07-20T10:32:02;6;6;
67892;PMS7003;54688;52.376;16.744;2023-07-20T10:35:12;6;6;
67892;PMS7003;54688;52.376;16.744;2023-07-20T10:38:14;6;6;
67892;PMS7003;54688;52.376;16.744;2023-07-20T10:41:17;8;6;
67892;PMS7003;54688;52.376;16.744;2023-07-20T10:44:20;6;6;
67892;PMS7003;54688;52.376;16.744;2023-07-20T10:47:22;8;7;
67892;PMS7003;54688;52.376;16.744;2023-07-20T10:50:24;6;6;
67892;PMS7003;54688;52.376;16.744;2023-07-20T10:53:27;9;8;
67892;PMS7003;54688;52.376;16.744;2023-07-20T10:56:30;9;8;
67892;PMS7003;54688;52.376;16.744;2023-07-20T10:59:39;7;7;
67892;PMS7003;54688;52.376;16.744;2023-07-20T11:02:45;9;9;
67892;PMS7003;54688;52.376;16.744;2023-07-20T11:05:49;9;9;
67892;PMS7003;54688;52.376;16.744;2023-07-20T11:08:56;12;12;
67892;PMS7003;54688;52.376;16.744;2023-07-20T11:12:09;10;9;
67892;PMS7003;54688;52.376;16.744;2023-07-20T11:15:11;10;9;
67892;PMS7003;54688;52.376;16.744;2023-07-20T11:18:14;10;9;
67892;PMS7003;54688;52.376;16.744;2023-07-20T11:21:16;9;6;
67892;PMS7003;54688;52.376;16.744;2023-07-20T11:24:18;6;6;
67892;PMS7003;54688;52.376;16.744;2023-07-20T11:27:21;7;7;
67892;PMS7003;54688;52.376;16.744;2023-07-20T11:30:24;4;4;
67892;PMS7003;54688;52.376;16.744;2023-07-20T11:33:26;5;5;
67892;PMS7003;54688;52.376;16.744;2023-07-20T11:36:28;1;1;
67892;PMS7003;54688;52.376;16.744;2023-07-20T11:39:31;1;1;
67892;PMS7003;54688;52.376;16.744;2023-07-20T11:42:33;1;0;
67892;PMS7003;54688;52.376;16.744;2023-07-20T11:45:37;1;1;
67892;PMS7003;54688;52.376;16.744;2023-07-20T11:48:39;1;1;
67892;PMS7003;54688;52.376;16.744;2023-07-20T11:51:41;0;0;
67892;PMS7003;54688;52.376;16.744;2023-07-20T11:54:43;1;0;
67892;PMS7003;54688;52.376;16.744;2023-07-20T11:58:01;2;1;
67892;PMS7003;54688;52.376;16.744;2023-07-20T12:01:02;2;2;
67892;PMS7003;54688;52.376;16.744;2023-07-20T12:04:05;1;1;
67892;PMS7003;54688;52.376;16.744;2023-07-20T12:07:08;1;1;
67892;PMS7003;54688;52.376;16.744;2023-07-20T12:10:11;1;1;
67892;PMS7003;54688;52.376;16.744;2023-07-20T12:13:13;1;1;
67892;PMS7003;54688;52.376;16.744;2023-07-20T12:16:16;1;1;
67892;PMS7003;54688;52.376;16.744;2023-07-20T12:19:18;2;2;
67892;PMS7003;54688;52.376;16.744;2023-07-20T12:22:20;2;1;
67892;PMS7003;54688;52.376;16.744;2023-07-20T12:25:22;2;2;
67892;PMS7003;54688;52.376;16.744;2023-07-20T12:28:25;2;2;
67892;PMS7003;54688;52.376;16.744;2023-07-20T12:31:27;0;0;
67892;PMS7003;54688;52.376;16.744;2023-07-20T12:34:30;2;2;
67892;PMS7003;54688;52.376;16.744;2023-07-20T12:37:32;1;1;
67892;PMS7003;54688;52.376;16.744;2023-07-20T12:40:34;1;1;
67892;PMS7003;54688;52.376;16.744;2023-07-20T12:43:36;2;2;
67892;PMS7003;54688;52.376;16.744;2023-07-20T12:46:37;2;2;
67892;PMS7003;54688;52.376;16.744;2023-07-20T12:49:39;2;2;
67892;PMS7003;54688;52.376;16.744;2023-07-20T12:52:42;4;2;
67892;PMS7003;54688;52.376;16.744;2023-07-20T12:55:44;1;1;
67892;PMS7003;54688;52.376;16.744;2023-07-20T12:58:47;2;2;
67892;PMS7003;54688;52.376;16.744;2023-07-20T13:01:49;1;0;
67892;PMS7003;54688;52.376;16.744;2023-07-20T13:04:50;0;0;
67892;PMS7003;54688;52.376;16.744;2023-07-20T13:07:52;1;1;
67892;PMS7003;54688;52.376;16.744;2023-07-20T13:10:55;2;2;
67892;PMS7003;54688;52.376;16.744;2023-07-20T13:13:58;1;1;
67892;PMS7003;54688;52.376;16.744;2023-07-20T13:17:00;3;1;
67892;PMS7003;54688;52.376;16.744;2023-07-20T13:20:05;2;2;
67892;PMS7003;54688;52.376;16.744;2023-07-20T13:23:07;2;2;
67892;PMS7003;54688;52.376;16.744;2023-07-20T13:26:09;2;2;
67892;PMS7003;54688;52.376;16.744;2023-07-20T13:29:11;1;0;
67892;PMS7003;54688;52.376;16.744;2023-07-20T13:32:13;3;2;
67892;PMS7003;54688;52.376;16.744;2023-07-20T13:35:16;2;2;
67892;PMS7003;54688;52.376;16.744;2023-07-20T13:38:19;2;2;
67892;PMS7003;54688;52.376;16.744;2023-07-20T13:41:21;0;0;
67892;PMS7003;54688;52.376;16.744;2023-07-20T13:44:24;3;3;
67892;PMS7003;54688;52.376;16.744;2023-07-20T13:47:26;1;1;
67892;PMS7003;54688;52.376;16.744;2023-07-20T13:50:28;2;2;
67892;PMS7003;54688;52.376;16.744;2023-07-20T13:53:31;1;1;
67892;PMS7003;54688;52.376;16.744;2023-07-20T13:56:33;1;1;
67892;PMS7003;54688;52.376;16.744;2023-07-20T13:59:36;1;1;
67892;PMS7003;54688;52.376;16.744;2023-07-20T14:02:38;1;1;
67892;PMS7003;54688;52.376;16.744;2023-07-20T14:05:41;1;1;
67892;PMS7003;54688;52.376;16.744;2023-07-20T14:08:43;2;1;
67892;PMS7003;54688;52.376;16.744;2023-07-20T14:11:45;1;1;
67892;PMS7003;54688;52.376;16.744;2023-07-20T14:14:47;0;0;
67892;PMS7003;54688;52.376;16.744;2023-07-20T14:17:49;2;2;
67892;PMS7003;54688;52.376;16.744;2023-07-20T14:20:51;2;2;
67892;PMS7003;54688;52.376;16.744;2023-07-20T14:23:53;0;0;
67892;PMS7003;54688;52.376;16.744;2023-07-20T14:26:56;1;1;
67892;PMS7003;54688;52.376;16.744;2023-07-20T14:29:58;1;1;
67892;PMS7003;54688;52.376;16.744;2023-07-20T14:33:00;1;1;
67892;PMS7003;54688;52.376;16.744;2023-07-20T14:36:02;1;1;
67892;PMS7003;54688;52.376;16.744;2023-07-20T14:39:04;1;1;
67892;PMS7003;54688;52.376;16.744;2023-07-20T14:42:07;1;1;
67892;PMS7003;54688;52.376;16.744;2023-07-20T14:45:09;1;1;
67892;PMS7003;54688;52.376;16.744;2023-07-20T14:48:11;0;0;
67892;PMS7003;54688;52.376;16.744;2023-07-20T14:51:14;1;1;
67892;PMS7003;54688;52.376;16.744;2023-07-20T14:54:16;1;1;
67892;PMS7003;54688;52.376;16.744;2023-07-20T14:57:18;1;1;
67892;PMS7003;54688;52.376;16.744;2023-07-20T15:00:21;2;2;
67892;PMS7003;54688;52.376;16.744;2023-07-20T15:03:23;3;1;
67892;PMS7003;54688;52.376;16.744;2023-07-20T15:06:24;1;1;
67892;PMS7003;54688;52.376;16.744;2023-07-20T15:09:27;1;1;
67892;PMS7003;54688;52.376;16.744;2023-07-20T15:12:29;0;0;
67892;PMS7003;54688;52.376;16.744;2023-07-20T15:15:32;1;1;
67892;PMS7003;54688;52.376;16.744;2023-07-20T15:18:34;2;2;
67892;PMS7003;54688;52.376;16.744;2023-07-20T15:21:37;0;0;
67892;PMS7003;54688;52.376;16.744;2023-07-20T15:24:39;2;2;
67892;PMS7003;54688;52.376;16.744;2023-07-20T15:27:42;1;1;
67892;PMS7003;54688;52.376;16.744;2023-07-20T15:30:44;1;0;
67892;PMS7003;54688;52.376;16.744;2023-07-20T15:33:46;1;1;
67892;PMS7003;54688;52.376;16.744;2023-07-20T15:36:49;0;0;
67892;PMS7003;54688;52.376;16.744;2023-07-20T15:39:51;1;1;
67892;PMS7003;54688;52.376;16.744;2023-07-20T15:42:53;0;0;
67892;PMS7003;54688;52.376;16.744;2023-07-20T15:46:01;1;1;
67892;PMS7003;54688;52.376;16.744;2023-07-20T15:49:03;1;1;
67892;PMS7003;54688;52.376;16.744;2023-07-20T15:52:05;1;1;
67892;PMS7003;54688;52.376;16.744;2023-07-20T15:55:08;1;1;
67892;PMS7003;54688;52.376;16.744;2023-07-20T15:58:10;1;1;
67892;PMS7003;54688;52.376;16.744;2023-07-20T16:01:12;3;2;
67892;PMS7003;54688;52.376;16.744;2023-07-20T16:04:14;1;0;
67892;PMS7003;54688;52.376;16.744;2023-07-20T16:07:16;1;1;
67892;PMS7003;54688;52.376;16.744;2023-07-20T16:10:18;0;0;
67892;PMS7003;54688;52.376;16.744;2023-07-20T16:13:20;1;1;
67892;PMS7003;54688;52.376;16.744;2023-07-20T16:16:22;1;1;
67892;PMS7003;54688;52.376;16.744;2023-07-20T16:19:24;0;0;
67892;PMS7003;54688;52.376;16.744;2023-07-20T16:22:27;1;1;
67892;PMS7003;54688;52.376;16.744;2023-07-20T16:25:29;1;1;
67892;PMS7003;54688;52.376;16.744;2023-07-20T16:28:32;2;0;
67892;PMS7003;54688;52.376;16.744;2023-07-20T16:31:33;0;0;
67892;PMS7003;54688;52.376;16.744;2023-07-20T16:34:36;0;0;
67892;PMS7003;54688;52.376;16.744;2023-07-20T16:37:38;0;0;
67892;PMS7003;54688;52.376;16.744;2023-07-20T16:40:41;1;1;
67892;PMS7003;54688;52.376;16.744;2023-07-20T16:43:43;1;1;
67892;PMS7003;54688;52.376;16.744;2023-07-20T16:46:46;0;0;
67892;PMS7003;54688;52.376;16.744;2023-07-20T16:49:48;1;1;
67892;PMS7003;54688;52.376;16.744;2023-07-20T16:52:51;1;1;
67892;PMS7003;54688;52.376;16.744;2023-07-20T16:55:53;2;2;
67892;PMS7003;54688;52.376;16.744;2023-07-20T16:58:56;1;1;
67892;PMS7003;54688;52.376;16.744;2023-07-20T17:01:58;1;1;
67892;PMS7003;54688;52.376;16.744;2023-07-20T17:05:01;1;1;
67892;PMS7003;54688;52.376;16.744;2023-07-20T17:08:03;1;1;
67892;PMS7003;54688;52.376;16.744;2023-07-20T17:11:06;1;1;
67892;PMS7003;54688;52.376;16.744;2023-07-20T17:14:09;0;0;
67892;PMS7003;54688;52.376;16.744;2023-07-20T17:17:10;1;1;
67892;PMS7003;54688;52.376;16.744;2023-07-20T17:23:13;1;1;
67892;PMS7003;54688;52.376;16.744;2023-07-20T17:26:14;0;0;
67892;PMS7003;54688;52.376;16.744;2023-07-20T17:29:17;1;0;
67892;PMS7003;54688;52.376;16.744;2023-07-20T17:32:18;1;1;
67892;PMS7003;54688;52.376;16.744;2023-07-20T17:35:21;0;0;
67892;PMS7003;54688;52.376;16.744;2023-07-20T17:38:23;0;0;
67892;PMS7003;54688;52.376;16.744;2023-07-20T17:41:25;0;0;
67892;PMS7003;54688;52.376;16.744;2023-07-20T17:44:27;0;0;
67892;PMS7003;54688;52.376;16.744;2023-07-20T17:47:29;0;0;
67892;PMS7003;54688;52.376;16.744;2023-07-20T17:50:32;0;0;
67892;PMS7003;54688;52.376;16.744;2023-07-20T17:53:34;0;0;
67892;PMS7003;54688;52.376;16.744;2023-07-20T17:56:37;0;0;
67892;PMS7003;54688;52.376;16.744;2023-07-20T17:59:39;1;0;
67892;PMS7003;54688;52.376;16.744;2023-07-20T18:02:42;0;0;
67892;PMS7003;54688;52.376;16.744;2023-07-20T18:05:44;0;0;
67892;PMS7003;54688;52.376;16.744;2023-07-20T18:08:46;0;0;
67892;PMS7003;54688;52.376;16.744;2023-07-20T18:11:48;0;0;
67892;PMS7003;54688;52.376;16.744;2023-07-20T18:14:50;0;0;
67892;PMS7003;54688;52.376;16.744;2023-07-20T18:17:53;0;0;
67892;PMS7003;54688;52.376;16.744;2023-07-20T18:20:55;0;0;
67892;PMS7003;54688;52.376;16.744;2023-07-20T18:23:58;0;0;
67892;PMS7003;54688;52.376;16.744;2023-07-20T18:27:00;0;0;
67892;PMS7003;54688;52.376;16.744;2023-07-20T18:30:05;0;0;
67892;PMS7003;54688;52.376;16.744;2023-07-20T18:33:07;0;0;
67892;PMS7003;54688;52.376;16.744;2023-07-20T18:36:09;0;0;
67892;PMS7003;54688;52.376;16.744;2023-07-20T18:39:11;1;1;
67892;PMS7003;54688;52.376;16.744;2023-07-20T18:42:13;0;0;
67892;PMS7003;54688;52.376;16.744;2023-07-20T18:45:16;1;0;
67892;PMS7003;54688;52.376;16.744;2023-07-20T18:48:18;0;0;
67892;PMS7003;54688;52.376;16.744;2023-07-20T18:51:21;0;0;
67892;PMS7003;54688;52.376;16.744;2023-07-20T18:54:23;1;1;
67892;PMS7003;54688;52.376;16.744;2023-07-20T18:57:26;1;1;
67892;PMS7003;54688;52.376;16.744;2023-07-20T19:00:28;0;0;
67892;PMS7003;54688;52.376;16.744;2023-07-20T19:03:32;0;0;
67892;PMS7003;54688;52.376;16.744;2023-07-20T19:06:34;0;0;
67892;PMS7003;54688;52.376;16.744;2023-07-20T19:12:36;0;0;
67892;PMS7003;54688;52.376;16.744;2023-07-20T19:15:38;1;1;
67892;PMS7003;54688;52.376;16.744;2023-07-20T19:18:41;1;1;
67892;PMS7003;54688;52.376;16.744;2023-07-20T19:21:43;1;1;
67892;PMS7003;54688;52.376;16.744;2023-07-20T19:24:45;3;2;
67892;PMS7003;54688;52.376;16.744;2023-07-20T19:27:56;2;2;
67892;PMS7003;54688;52.376;16.744;2023-07-20T19:30:59;2;2;
67892;PMS7003;54688;52.376;16.744;2023-07-20T19:34:00;1;1;
67892;PMS7003;54688;52.376;16.744;2023-07-20T19:37:04;2;2;
67892;PMS7003;54688;52.376;16.744;2023-07-20T19:40:07;2;2;
67892;PMS7003;54688;52.376;16.744;2023-07-20T19:43:09;4;3;
67892;PMS7003;54688;52.376;16.744;2023-07-20T19:46:11;2;2;
67892;PMS7003;54688;52.376;16.744;2023-07-20T19:49:13;3;1;
67892;PMS7003;54688;52.376;16.744;2023-07-20T19:52:16;4;4;
67892;PMS7003;54688;52.376;16.744;2023-07-20T19:55:18;2;2;
67892;PMS7003;54688;52.376;16.744;2023-07-20T19:58:21;2;2;
67892;PMS7003;54688;52.376;16.744;2023-07-20T20:01:23;4;2;
67892;PMS7003;54688;52.376;16.744;2023-07-20T20:04:25;3;1;
67892;PMS7003;54688;52.376;16.744;2023-07-20T20:07:27;4;2;
67892;PMS7003;54688;52.376;16.744;2023-07-20T20:10:29;2;2;
67892;PMS7003;54688;52.376;16.744;2023-07-20T20:13:31;4;3;
67892;PMS7003;54688;52.376;16.744;2023-07-20T20:16:34;5;4;
67892;PMS7003;54688;52.376;16.744;2023-07-20T20:19:35;3;3;
67892;PMS7003;54688;52.376;16.744;2023-07-20T20:22:37;4;4;
67892;PMS7003;54688;52.376;16.744;2023-07-20T20:25:39;4;4;
67892;PMS7003;54688;52.376;16.744;2023-07-20T20:28:41;3;3;